createdAt,value
2018-07-30T00:00:22.623Z,60229.20
2018-07-30T00:02:50.782Z,60230.22
2018-07-30T00:05:18.958Z,60237.33
2018-07-30T00:07:47.140Z,60224.12
2018-07-30T00:10:15.319Z,60219.04
2018-07-30T00:12:43.488Z,60221.07
2018-07-30T00:15:11.666Z,60239.36
2018-07-30T00:17:39.841Z,60226.16
2018-07-30T00:20:08.022Z,60226.16
2018-07-30T00:22:36.190Z,60228.19
2018-07-30T00:25:04.475Z,60225.14
2018-07-30T00:27:32.646Z,60240.38
2018-07-30T00:30:00.814Z,60223.11
2018-07-30T00:32:28.986Z,60210.91
2018-07-30T00:34:57.193Z,60225.14
2018-07-30T00:37:25.355Z,60224.12
2018-07-30T00:39:53.522Z,60214.98
2018-07-30T00:42:21.706Z,60227.17
2018-07-30T00:44:49.867Z,60238.35
2018-07-30T00:47:18.038Z,60226.16
2018-07-30T00:49:46.199Z,60238.35
2018-07-30T00:52:14.366Z,60248.51
2018-07-30T00:54:42.530Z,60236.32
2018-07-30T00:57:10.714Z,60257.66
2018-07-30T00:59:38.895Z,60227.17
2018-07-30T01:02:07.076Z,60251.56
2018-07-30T01:04:35.234Z,60237.33
2018-07-30T01:07:03.405Z,60256.64
2018-07-30T01:09:31.594Z,60249.53
2018-07-30T01:12:00.207Z,60264.77
2018-07-30T01:14:28.406Z,60234.29
2018-07-30T01:16:56.578Z,60263.75
2018-07-30T01:19:24.755Z,60251.56
2018-07-30T01:21:52.931Z,60257.66
2018-07-30T01:24:21.098Z,60233.27
2018-07-30T01:26:49.258Z,60269.85
2018-07-30T01:29:17.546Z,60234.29
2018-07-30T01:31:45.706Z,60241.40
2018-07-30T01:34:13.934Z,60245.46
2018-07-30T01:36:42.095Z,60258.67
2018-07-30T01:39:10.270Z,60246.48
2018-07-30T01:41:38.442Z,60256.64
2018-07-30T01:44:06.606Z,60271.88
2018-07-30T01:46:34.770Z,60278.99
2018-07-30T01:49:03.103Z,60258.67
2018-07-30T01:51:31.262Z,60266.80
2018-07-30T01:53:59.498Z,60248.51
2018-07-30T01:56:27.675Z,60253.59
2018-07-30T01:58:55.854Z,60264.77
2018-07-30T02:01:24.015Z,60273.91
2018-07-30T02:03:52.410Z,60254.61
2018-07-30T02:06:20.590Z,60235.30
2018-07-30T02:08:48.774Z,60253.59
2018-07-30T02:11:16.966Z,60288.14
2018-07-30T02:13:45.131Z,60272.90
2018-07-30T02:16:13.351Z,60286.11
2018-07-30T02:18:41.511Z,60261.72
2018-07-30T02:21:09.694Z,60285.09
2018-07-30T02:23:37.867Z,60245.46
2018-07-30T02:26:06.047Z,60288.14
2018-07-30T02:28:34.219Z,60252.57
2018-07-30T02:31:02.383Z,60276.96
2018-07-30T02:33:30.566Z,60264.77
2018-07-30T02:35:58.727Z,60268.83
2018-07-30T02:38:26.903Z,60269.85
2018-07-30T02:40:55.082Z,60278.99
2018-07-30T02:43:23.263Z,60278.99
2018-07-30T02:45:51.760Z,60291.19
2018-07-30T02:48:19.931Z,60283.06
2018-07-30T02:50:48.122Z,60275.95
2018-07-30T02:53:16.286Z,60300.34
2018-07-30T02:55:44.462Z,60285.09
2018-07-30T02:58:12.646Z,60261.72
2018-07-30T03:00:40.810Z,60261.72
2018-07-30T03:03:10.883Z,60290.17
2018-07-30T03:05:39.203Z,60285.09
2018-07-30T03:08:08.123Z,60288.14
2018-07-30T03:10:36.312Z,60290.17
2018-07-30T03:13:04.508Z,60287.12
2018-07-30T03:15:32.678Z,60286.11
2018-07-30T03:18:00.886Z,60262.74
2018-07-30T03:20:29.062Z,60287.12
2018-07-30T03:22:57.246Z,60255.63
2018-07-30T03:25:25.423Z,60286.11
2018-07-30T03:27:53.602Z,60287.12
2018-07-30T03:30:21.772Z,60272.90
2018-07-30T03:32:49.950Z,60255.63
2018-07-30T03:35:18.131Z,60282.04
2018-07-30T03:37:46.302Z,60292.21
2018-07-30T03:40:14.487Z,60257.66
2018-07-30T03:42:42.654Z,60284.07
2018-07-30T03:45:11.196Z,60269.85
2018-07-30T03:47:39.502Z,60284.07
2018-07-30T03:50:07.767Z,60285.09
2018-07-30T03:52:35.940Z,60291.19
2018-07-30T03:55:04.450Z,60287.12
2018-07-30T03:57:32.614Z,60283.06
2018-07-30T04:00:00.849Z,60288.14
2018-07-30T04:02:28.958Z,60295.25
2018-07-30T04:04:57.132Z,60278.99
2018-07-30T04:07:25.286Z,60295.25
2018-07-30T04:09:53.459Z,60265.79
2018-07-30T04:12:21.618Z,60291.19
2018-07-30T04:14:49.790Z,60306.43
2018-07-30T04:17:17.948Z,60265.79
2018-07-30T04:19:46.114Z,60275.95
2018-07-30T04:22:14.323Z,60277.98
2018-07-30T04:24:42.462Z,60304.40
2018-07-30T04:27:10.625Z,60306.43
2018-07-30T04:29:38.778Z,60274.93
2018-07-30T04:32:06.992Z,60278.99
2018-07-30T04:34:35.242Z,60282.04
2018-07-30T04:37:03.431Z,60290.17
2018-07-30T04:39:31.594Z,60297.29
2018-07-30T04:41:59.806Z,60309.48
2018-07-30T04:44:28.149Z,60289.16
2018-07-30T04:46:56.306Z,60290.17
2018-07-30T04:49:24.498Z,60278.99
2018-07-30T04:51:52.675Z,60308.46
2018-07-30T04:54:20.858Z,60267.82
2018-07-30T04:56:49.059Z,60283.06
2018-07-30T04:59:17.198Z,60285.09
2018-07-30T05:01:45.394Z,60290.17
2018-07-30T05:04:13.562Z,60304.40
2018-07-30T05:06:41.715Z,60307.45
2018-07-30T05:09:10.128Z,60283.06
2018-07-30T05:11:38.283Z,60287.12
2018-07-30T05:14:06.466Z,60276.96
2018-07-30T05:16:34.683Z,60286.11
2018-07-30T05:19:02.850Z,60299.32
2018-07-30T05:21:31.017Z,60280.01
2018-07-30T05:23:59.232Z,60282.04
2018-07-30T05:26:27.386Z,60270.87
2018-07-30T05:28:55.562Z,60276.96
2018-07-30T05:31:23.707Z,60291.19
2018-07-30T05:33:51.910Z,60297.29
2018-07-30T05:36:20.744Z,60280.01
2018-07-30T05:38:48.962Z,60294.24
2018-07-30T05:41:23.822Z,60285.09
2018-07-30T05:43:52.006Z,60280.01
2018-07-30T05:46:20.496Z,60273.91
2018-07-30T05:48:48.635Z,60283.06
2018-07-30T05:51:16.822Z,60265.79
2018-07-30T05:53:44.995Z,60296.27
2018-07-30T05:56:13.238Z,60291.19
2018-07-30T05:58:41.586Z,60259.69
2018-07-30T06:01:10.182Z,60280.01
2018-07-30T06:03:38.403Z,60267.82
2018-07-30T06:06:06.911Z,60276.96
2018-07-30T06:08:35.154Z,60273.91
2018-07-30T06:11:03.348Z,60271.88
2018-07-30T06:13:31.531Z,60292.21
2018-07-30T06:15:59.734Z,60284.07
2018-07-30T06:18:27.945Z,60280.01
2018-07-30T06:20:56.172Z,60271.88
2018-07-30T06:23:24.295Z,60276.96
2018-07-30T06:25:52.483Z,60263.75
2018-07-30T06:28:20.753Z,60264.77
2018-07-30T06:30:49.015Z,60268.83
2018-07-30T06:33:17.398Z,60263.75
2018-07-30T06:35:45.742Z,60267.82
2018-07-30T06:38:13.946Z,60265.79
2018-07-30T06:40:42.104Z,60239.36
2018-07-30T06:43:10.426Z,60255.63
2018-07-30T06:45:38.739Z,60270.87
2018-07-30T06:48:07.027Z,60242.41
2018-07-30T06:50:35.235Z,60244.45
2018-07-30T06:53:03.556Z,60243.43
2018-07-30T06:55:32.798Z,60227.17
2018-07-30T06:58:01.066Z,60230.22
2018-07-30T07:00:30.070Z,60227.17
2018-07-30T07:02:58.258Z,60236.32
2018-07-30T07:05:26.440Z,60222.09
2018-07-30T07:07:54.754Z,60233.27
2018-07-30T07:10:22.932Z,60225.14
2018-07-30T07:12:51.115Z,60218.03
2018-07-30T07:15:19.427Z,60233.27
2018-07-30T07:17:47.742Z,60227.17
2018-07-30T07:20:16.234Z,60214.98
2018-07-30T07:22:44.490Z,60217.01
2018-07-30T07:25:13.035Z,60210.91
2018-07-30T07:27:41.305Z,60229.20
2018-07-30T07:30:10.234Z,60208.88
2018-07-30T07:32:38.522Z,60222.09
2018-07-30T07:35:06.959Z,60236.32
2018-07-30T07:37:35.419Z,60219.04
2018-07-30T07:40:03.669Z,60205.83
2018-07-30T07:42:31.857Z,60207.86
2018-07-30T07:45:00.070Z,60214.98
2018-07-30T07:47:28.206Z,60237.33
2018-07-30T07:49:56.394Z,60193.64
2018-07-30T07:52:24.596Z,60190.59
2018-07-30T07:54:52.829Z,60198.72
2018-07-30T07:57:21.054Z,60204.82
2018-07-30T07:59:49.234Z,60208.88
2018-07-30T08:02:17.435Z,60197.70
2018-07-30T08:04:45.609Z,60197.70
2018-07-30T08:07:13.783Z,60178.40
2018-07-30T08:09:42.049Z,60192.62
2018-07-30T08:12:10.190Z,60178.40
2018-07-30T08:14:38.371Z,60193.64
2018-07-30T08:17:06.590Z,60182.46
2018-07-30T08:19:34.763Z,60170.27
2018-07-30T08:22:02.947Z,60175.35
2018-07-30T08:24:31.114Z,60163.16
2018-07-30T08:26:59.314Z,60171.29
2018-07-30T08:29:27.489Z,60156.04
2018-07-30T08:31:55.667Z,60161.12
2018-07-30T08:34:23.843Z,60167.22
2018-07-30T08:36:52.016Z,60162.14
2018-07-30T08:39:20.210Z,60155.03
2018-07-30T08:41:48.387Z,60160.11
2018-07-30T08:44:16.654Z,60141.82
2018-07-30T08:46:44.823Z,60136.73
2018-07-30T08:49:13.159Z,60155.03
2018-07-30T08:51:41.538Z,60129.63
2018-07-30T08:54:09.726Z,60142.83
2018-07-30T08:56:37.882Z,60135.72
2018-07-30T08:59:06.050Z,60153.00
2018-07-30T09:01:34.212Z,60129.63
2018-07-30T09:04:02.399Z,60144.87
2018-07-30T09:06:30.548Z,60137.75
2018-07-30T09:08:58.718Z,60128.61
2018-07-30T09:11:26.966Z,60127.59
2018-07-30T09:13:55.139Z,60142.83
2018-07-30T09:16:23.319Z,60145.88
2018-07-30T09:18:51.519Z,60115.40
2018-07-30T09:21:19.719Z,60131.66
2018-07-30T09:23:47.910Z,60126.57
2018-07-30T09:26:16.114Z,60130.64
2018-07-30T09:28:44.247Z,60125.56
2018-07-30T09:31:12.569Z,60121.50
2018-07-30T09:33:40.735Z,60131.66
2018-07-30T09:36:08.951Z,60134.70
2018-07-30T09:38:37.353Z,60136.73
2018-07-30T09:41:05.564Z,60118.45
2018-07-30T09:43:33.726Z,60122.51
2018-07-30T09:46:02.031Z,60133.69
2018-07-30T09:48:30.191Z,60115.40
2018-07-30T09:50:58.366Z,60118.45
2018-07-30T09:53:26.562Z,60103.20
2018-07-30T09:55:54.746Z,60105.24
2018-07-30T09:58:22.948Z,60091.01
2018-07-30T10:00:56.447Z,60086.95
2018-07-30T10:03:24.626Z,60093.04
2018-07-30T10:05:52.798Z,60090.00
2018-07-30T10:08:20.991Z,60088.98
2018-07-30T10:10:49.158Z,60092.03
2018-07-30T10:13:17.331Z,60076.79
2018-07-30T10:15:45.559Z,60072.72
2018-07-30T10:18:13.729Z,60060.53
2018-07-30T10:20:41.895Z,60046.30
2018-07-30T10:23:10.051Z,60059.51
2018-07-30T10:25:38.215Z,60076.79
2018-07-30T10:28:06.402Z,60069.67
2018-07-30T10:30:34.581Z,60058.50
2018-07-30T10:33:02.738Z,60073.74
2018-07-30T10:35:30.918Z,60049.35
2018-07-30T10:37:59.167Z,60047.32
2018-07-30T10:40:27.424Z,60033.09
2018-07-30T10:42:55.598Z,60038.18
2018-07-30T10:45:24.691Z,60040.21
2018-07-30T10:47:52.861Z,60041.22
2018-07-30T10:50:21.051Z,60031.06
2018-07-30T10:52:49.210Z,60029.03
2018-07-30T10:55:17.386Z,60010.74
2018-07-30T10:57:45.596Z,60007.69
2018-07-30T11:00:13.755Z,60016.84
2018-07-30T11:02:41.922Z,60004.64
2018-07-30T11:05:10.071Z,60003.63
2018-07-30T11:07:38.236Z,59998.55
2018-07-30T11:10:06.579Z,60019.88
2018-07-30T11:12:35.591Z,60010.74
2018-07-30T11:15:03.787Z,60009.73
2018-07-30T11:17:31.959Z,60019.88
2018-07-30T11:20:00.128Z,60009.73
2018-07-30T11:22:28.327Z,60016.84
2018-07-30T11:24:56.486Z,60017.85
2018-07-30T11:27:24.700Z,60017.85
2018-07-30T11:29:52.859Z,59995.50
2018-07-30T11:32:21.074Z,59995.50
2018-07-30T11:34:49.238Z,59992.45
2018-07-30T11:37:17.410Z,59985.34
2018-07-30T11:39:45.623Z,59995.50
2018-07-30T11:42:13.786Z,59995.50
2018-07-30T11:44:42.083Z,59989.40
2018-07-30T11:47:10.238Z,60007.69
2018-07-30T11:49:38.638Z,60000.58
2018-07-30T11:52:08.043Z,59995.50
2018-07-30T11:54:36.326Z,59994.48
2018-07-30T11:57:04.551Z,60001.59
2018-07-30T11:59:32.722Z,59992.45
2018-07-30T12:02:00.898Z,60030.05
2018-07-30T12:04:29.103Z,60025.98
2018-07-30T12:06:57.285Z,60028.02
2018-07-30T12:09:25.498Z,60043.25
2018-07-30T12:11:53.696Z,60049.35
2018-07-30T12:14:21.883Z,60035.12
2018-07-30T12:16:50.068Z,60050.37
2018-07-30T12:19:18.244Z,60049.35
2018-07-30T12:21:46.472Z,60058.50
2018-07-30T12:24:14.611Z,60044.27
2018-07-30T12:26:42.822Z,60038.18
2018-07-30T12:29:10.990Z,60036.14
2018-07-30T12:31:39.181Z,60040.21
2018-07-30T12:34:07.358Z,60039.19
2018-07-30T12:36:35.614Z,60031.06
2018-07-30T12:39:04.947Z,60034.11
2018-07-30T12:41:33.132Z,60041.22
2018-07-30T12:44:01.321Z,60045.29
2018-07-30T12:46:29.478Z,60039.19
2018-07-30T12:48:57.651Z,60030.05
2018-07-30T12:51:25.814Z,60014.80
2018-07-30T12:53:54.546Z,60035.12
2018-07-30T12:56:22.734Z,60040.21
2018-07-30T12:58:50.910Z,60041.22
2018-07-30T13:01:19.083Z,60023.95
2018-07-30T13:03:47.270Z,60032.08
2018-07-30T13:06:15.626Z,60034.11
2018-07-30T13:08:44.107Z,60035.12
2018-07-30T13:11:12.278Z,60040.21
2018-07-30T13:13:40.544Z,60036.14
2018-07-30T13:16:08.698Z,60023.95
2018-07-30T13:18:36.851Z,60018.87
2018-07-30T13:21:05.123Z,60010.74
2018-07-30T13:23:33.214Z,60028.02
2018-07-30T13:26:01.440Z,60016.84
2018-07-30T13:28:29.618Z,60022.93
2018-07-30T13:30:57.832Z,60015.82
2018-07-30T13:33:26.043Z,60017.85
2018-07-30T13:35:54.230Z,60016.84
2018-07-30T13:38:22.414Z,60033.09
2018-07-30T13:40:50.649Z,60019.88
2018-07-30T13:43:18.826Z,60013.79
2018-07-30T13:45:47.046Z,60023.95
2018-07-30T13:48:15.214Z,60021.92
2018-07-30T13:50:43.433Z,60019.88
2018-07-30T13:53:11.655Z,60020.90
2018-07-30T13:55:39.822Z,60019.88
2018-07-30T13:58:08.011Z,60019.88
2018-07-30T14:00:36.214Z,60012.77
2018-07-30T14:03:04.426Z,60025.98
2018-07-30T14:05:32.610Z,60027.00
2018-07-30T14:08:00.802Z,60024.96
2018-07-30T14:10:28.975Z,60027.00
2018-07-30T14:12:57.162Z,60030.05
2018-07-30T14:15:25.342Z,60043.25
2018-07-30T14:17:53.538Z,60038.18
2018-07-30T14:20:21.735Z,60044.27
2018-07-30T14:22:49.923Z,60044.27
2018-07-30T14:25:18.102Z,60056.46
2018-07-30T14:27:46.278Z,60036.14
2018-07-30T14:30:14.462Z,60048.34
2018-07-30T14:32:42.667Z,60049.35
2018-07-30T14:35:10.843Z,60039.19
2018-07-30T14:37:39.037Z,60039.19
2018-07-30T14:40:09.917Z,60048.34
2018-07-30T14:42:38.224Z,60032.08
2018-07-30T14:45:06.699Z,60053.42
2018-07-30T14:47:34.879Z,60037.16
2018-07-30T14:50:03.090Z,60046.30
2018-07-30T14:52:31.294Z,60033.09
2018-07-30T14:54:59.474Z,60033.09
2018-07-30T14:57:27.650Z,60049.35
2018-07-30T14:59:56.007Z,60043.25
2018-07-30T15:02:24.126Z,60043.25
2018-07-30T15:04:52.302Z,60063.57
2018-07-30T15:07:20.490Z,60042.24
2018-07-30T15:09:48.666Z,60060.53
2018-07-30T15:12:16.947Z,60049.35
2018-07-30T15:14:45.063Z,60049.35
2018-07-30T15:17:13.242Z,60050.37
2018-07-30T15:19:41.431Z,60058.50
2018-07-30T15:22:09.602Z,60049.35
2018-07-30T15:24:37.802Z,60046.30
2018-07-30T15:27:06.627Z,60050.37
2018-07-30T15:29:34.818Z,60060.53
2018-07-30T15:32:03.010Z,60051.38
2018-07-30T15:34:31.212Z,60049.35
2018-07-30T15:36:59.390Z,60060.53
2018-07-30T15:39:27.575Z,60068.66
2018-07-30T15:41:55.762Z,60056.46
2018-07-30T15:44:23.987Z,60058.50
2018-07-30T15:46:52.217Z,60046.30
2018-07-30T15:49:20.447Z,60048.34
2018-07-30T15:51:48.641Z,60045.29
2018-07-30T15:54:17.003Z,60048.34
2018-07-30T15:56:45.202Z,60053.42
2018-07-30T15:59:14.501Z,60053.42
2018-07-30T16:01:42.730Z,60049.35
2018-07-30T16:04:10.983Z,60050.37
2018-07-30T16:06:39.201Z,60060.53
2018-07-30T16:09:07.898Z,60043.25
2018-07-30T16:11:36.738Z,60064.59
2018-07-30T16:14:04.930Z,60071.71
2018-07-30T16:16:33.146Z,60070.69
2018-07-30T16:19:01.342Z,60060.53
2018-07-30T16:21:29.904Z,60058.50
2018-07-30T16:23:58.247Z,60068.66
2018-07-30T16:26:26.806Z,60067.64
2018-07-30T16:28:55.102Z,60066.62
2018-07-30T16:31:23.493Z,60059.51
2018-07-30T16:33:51.914Z,60063.57
2018-07-30T16:36:20.281Z,60064.59
2018-07-30T16:38:48.754Z,60058.50
2018-07-30T16:41:17.002Z,60063.57
2018-07-30T16:43:45.542Z,60059.51
2018-07-30T16:46:13.800Z,60054.43
2018-07-30T16:48:42.179Z,60056.46
2018-07-30T16:51:10.408Z,60060.53
2018-07-30T16:53:38.626Z,60065.61
2018-07-30T16:56:06.809Z,60071.71
2018-07-30T16:58:35.049Z,60090.00
2018-07-30T17:01:03.446Z,60067.64
2018-07-30T17:03:31.635Z,60087.96
2018-07-30T17:05:59.851Z,60074.75
2018-07-30T17:08:28.076Z,60057.48
2018-07-30T17:10:56.251Z,60066.62
2018-07-30T17:13:24.443Z,60070.69
2018-07-30T17:15:52.706Z,60078.82
2018-07-30T17:18:21.221Z,60070.69
2018-07-30T17:20:49.722Z,60068.66
2018-07-30T17:23:18.049Z,60072.72
2018-07-30T17:25:46.548Z,60070.69
2018-07-30T17:28:15.059Z,60077.80
2018-07-30T17:30:43.452Z,60077.80
2018-07-30T17:33:12.150Z,60085.93
2018-07-30T17:35:40.358Z,60068.66
2018-07-30T17:38:08.575Z,60084.91
2018-07-30T17:40:36.732Z,60063.57
2018-07-30T17:43:04.895Z,60073.74
2018-07-30T17:45:33.098Z,60073.74
2018-07-30T17:48:01.276Z,60068.66
2018-07-30T17:50:29.478Z,60082.88
2018-07-30T17:52:57.655Z,60072.72
2018-07-30T17:55:25.823Z,60076.79
2018-07-30T17:57:53.998Z,60079.84
2018-07-30T18:00:22.166Z,60082.88
2018-07-30T18:02:50.346Z,60067.64
2018-07-30T18:05:21.116Z,60085.93
2018-07-30T18:07:50.653Z,60092.03
2018-07-30T18:10:18.986Z,60101.17
2018-07-30T18:12:47.757Z,60073.74
2018-07-30T18:15:16.109Z,60092.03
2018-07-30T18:17:44.579Z,60093.04
2018-07-30T18:20:13.870Z,60096.09
2018-07-30T18:22:42.786Z,60093.04
2018-07-30T18:25:11.400Z,60093.04
2018-07-30T18:27:39.702Z,60097.11
2018-07-30T18:30:07.979Z,60080.85
2018-07-30T18:32:36.291Z,60094.06
2018-07-30T18:35:04.761Z,60103.20
2018-07-30T18:37:32.931Z,60075.77
2018-07-30T18:40:01.174Z,60083.90
2018-07-30T18:42:31.362Z,60097.11
2018-07-30T18:44:59.618Z,60088.98
2018-07-30T18:47:27.818Z,60092.03
2018-07-30T18:49:56.058Z,60101.17
2018-07-30T18:52:24.348Z,60097.11
2018-07-30T18:54:52.534Z,60101.17
2018-07-30T18:57:20.866Z,60096.09
2018-07-30T18:59:49.043Z,60105.24
2018-07-30T19:02:17.260Z,60118.45
2018-07-30T19:04:45.452Z,60113.37
2018-07-30T19:07:13.615Z,60120.48
2018-07-30T19:09:41.798Z,60100.16
2018-07-30T19:12:09.991Z,60127.59
2018-07-30T19:14:38.319Z,60116.41
2018-07-30T19:17:06.502Z,60123.53
2018-07-30T19:22:37.230Z,60117.43
2018-07-30T19:25:05.482Z,60131.66
2018-07-30T19:27:41.950Z,60131.66
2018-07-30T19:30:10.242Z,60134.70
2018-07-30T19:32:38.954Z,60128.61
2018-07-30T19:35:07.463Z,60137.75
2018-07-30T19:37:35.694Z,60121.50
2018-07-30T19:40:04.315Z,60126.57
2018-07-30T19:42:32.610Z,60135.72
2018-07-30T19:45:00.856Z,60147.91
2018-07-30T19:47:29.895Z,60148.93
2018-07-30T19:49:58.062Z,60146.90
2018-07-30T19:52:26.234Z,60155.03
2018-07-30T19:54:54.442Z,60154.01
2018-07-30T19:57:22.680Z,60170.27
2018-07-30T19:59:50.807Z,60154.01
2018-07-30T20:02:18.995Z,60180.43
2018-07-30T20:04:47.206Z,60163.16
2018-07-30T20:07:15.416Z,60167.22
2018-07-30T20:09:43.605Z,60177.38
2018-07-30T20:12:11.886Z,60163.16
2018-07-30T20:14:40.095Z,60163.16
2018-07-30T20:17:08.320Z,60175.35
2018-07-30T20:19:36.499Z,60179.41
2018-07-30T20:22:04.727Z,60167.22
2018-07-30T20:24:34.217Z,60182.46
2018-07-30T20:27:02.408Z,60196.69
2018-07-30T20:29:30.730Z,60178.40
2018-07-30T20:31:58.921Z,60168.23
2018-07-30T20:34:27.107Z,60198.72
2018-07-30T20:36:55.319Z,60182.46
2018-07-30T20:39:23.491Z,60182.46
2018-07-30T20:41:51.698Z,60182.46
2018-07-30T20:44:19.935Z,60181.45
2018-07-30T20:46:49.142Z,60183.48
2018-07-30T20:49:17.347Z,60182.46
2018-07-30T20:51:45.564Z,60196.69
2018-07-30T20:54:13.768Z,60201.77
2018-07-30T20:56:41.962Z,60194.66
2018-07-30T20:59:10.177Z,60191.61
2018-07-30T21:01:38.487Z,60197.70
2018-07-30T21:04:06.807Z,60211.93
2018-07-30T21:06:35.062Z,60197.70
2018-07-30T21:09:03.363Z,60196.69
2018-07-30T21:11:31.824Z,60183.48
2018-07-30T21:14:00.206Z,60203.80
2018-07-30T21:16:28.427Z,60208.88
2018-07-30T21:18:56.626Z,60201.77
2018-07-30T21:21:24.827Z,60206.85
2018-07-30T21:23:53.012Z,60204.82
2018-07-30T21:26:21.210Z,60214.98
2018-07-30T21:28:49.417Z,60194.66
2018-07-30T21:31:17.610Z,60221.07
2018-07-30T21:33:45.815Z,60201.77
2018-07-30T21:36:14.002Z,60208.88
2018-07-30T21:38:42.230Z,60195.67
2018-07-30T21:41:10.406Z,60218.03
2018-07-30T21:43:38.600Z,60197.70
2018-07-30T21:46:06.783Z,60225.14
2018-07-30T21:48:35.039Z,60204.82
2018-07-30T21:51:03.239Z,60217.01
2018-07-30T21:53:31.435Z,60207.86
2018-07-30T21:55:59.638Z,60215.99
2018-07-30T21:58:28.098Z,60212.95
2018-07-30T22:00:57.402Z,60198.72
2018-07-30T22:03:25.979Z,60229.20
2018-07-30T22:05:57.653Z,60226.16
2018-07-30T22:08:26.425Z,60222.09
2018-07-30T22:10:54.610Z,60197.70
2018-07-30T22:13:22.799Z,60219.04
2018-07-30T22:15:50.998Z,60226.16
2018-07-30T22:18:19.294Z,60223.11
2018-07-30T22:20:47.531Z,60222.09
2018-07-30T22:23:15.984Z,60235.30
2018-07-30T22:25:44.162Z,60220.06
2018-07-30T22:28:12.367Z,60224.12
2018-07-30T22:30:40.564Z,60203.80
2018-07-30T22:33:08.747Z,60229.20
2018-07-30T22:35:36.948Z,60223.11
2018-07-30T22:38:05.411Z,60219.04
2018-07-30T22:40:33.607Z,60194.66
2018-07-30T22:43:01.879Z,60220.06
2018-07-30T22:45:30.119Z,60215.99
2018-07-30T22:47:58.318Z,60226.16
2018-07-30T22:50:26.583Z,60231.24
2018-07-30T22:52:54.766Z,60223.11
2018-07-30T22:55:22.971Z,60203.80
2018-07-30T22:57:51.157Z,60202.79
2018-07-30T23:00:19.346Z,60221.07
2018-07-30T23:02:47.526Z,60218.03
2018-07-30T23:05:15.855Z,60228.19
2018-07-30T23:07:44.037Z,60223.11
2018-07-30T23:10:12.262Z,60210.91
2018-07-30T23:12:40.457Z,60219.04
2018-07-30T23:15:08.654Z,60235.30
2018-07-30T23:17:36.842Z,60211.93
2018-07-30T23:20:05.368Z,60235.30
2018-07-30T23:22:33.559Z,60232.25
2018-07-30T23:25:01.747Z,60235.30
2018-07-30T23:27:29.923Z,60214.98
2018-07-30T23:29:58.161Z,60244.45
2018-07-30T23:32:26.604Z,60240.38
2018-07-30T23:34:54.811Z,60225.14
2018-07-30T23:37:23.194Z,60224.12
2018-07-30T23:39:51.266Z,60233.27
2018-07-30T23:42:19.454Z,60238.35
2018-07-30T23:44:47.771Z,60227.17
2018-07-30T23:47:15.975Z,60225.14
2018-07-30T23:49:44.176Z,60231.24
2018-07-30T23:52:12.383Z,60244.45
2018-07-30T23:54:40.582Z,60230.22
2018-07-30T23:57:08.787Z,60236.32
2018-07-30T23:59:36.999Z,60236.32
